sensor_id;sensor_type;location;lat;lon;timestamp;P1;durP1;ratioP1;P2;durP2;ratioP2
1545;SDS011;766;51.502;9.752;2022-07-23T00:01:00;15.13;;;8.52;;
1545;SDS011;766;51.502;9.752;2022-07-23T00:03:30;14.05;;;7.90;;
1545;SDS011;766;51.502;9.752;2022-07-23T00:05:59;10.07;;;7.60;;
1545;SDS011;766;51.502;9.752;2022-07-23T00:08:28;15.32;;;7.82;;
1545;SDS011;766;51.502;9.752;2022-07-23T00:10:56;9.55;;;7.38;;
1545;SDS011;766;51.502;9.752;2022-07-23T00:13:24;13.70;;;8.23;;
1545;SDS011;766;51.502;9.752;2022-07-23T00:15:53;12.90;;;8.10;;
1545;SDS011;766;51.502;9.752;2022-07-23T00:18:23;13.00;;;7.13;;
1545;SDS011;766;51.502;9.752;2022-07-23T00:20:51;9.02;;;7.30;;
1545;SDS011;766;51.502;9.752;2022-07-23T00:23:20;12.75;;;7.40;;
1545;SDS011;766;51.502;9.752;2022-07-23T00:25:48;13.30;;;7.70;;
1545;SDS011;766;51.502;9.752;2022-07-23T00:28:16;11.45;;;7.20;;
1545;SDS011;766;51.502;9.752;2022-07-23T00:30:46;10.77;;;7.93;;
1545;SDS011;766;51.502;9.752;2022-07-23T00:33:14;13.00;;;8.25;;
1545;SDS011;766;51.502;9.752;2022-07-23T00:35:44;14.40;;;7.90;;
1545;SDS011;766;51.502;9.752;2022-07-23T00:38:12;13.85;;;8.43;;
1545;SDS011;766;51.502;9.752;2022-07-23T00:40:41;10.40;;;7.85;;
1545;SDS011;766;51.502;9.752;2022-07-23T00:43:09;12.02;;;8.45;;
1545;SDS011;766;51.502;9.752;2022-07-23T00:45:38;10.60;;;8.77;;
1545;SDS011;766;51.502;9.752;2022-07-23T00:48:07;15.77;;;9.15;;
1545;SDS011;766;51.502;9.752;2022-07-23T00:50:36;11.38;;;8.95;;
1545;SDS011;766;51.502;9.752;2022-07-23T00:53:06;14.75;;;10.00;;
1545;SDS011;766;51.502;9.752;2022-07-23T00:55:36;17.75;;;9.48;;
1545;SDS011;766;51.502;9.752;2022-07-23T00:58:05;16.10;;;10.15;;
1545;SDS011;766;51.502;9.752;2022-07-23T01:00:34;17.92;;;10.27;;
1545;SDS011;766;51.502;9.752;2022-07-23T01:03:03;14.50;;;9.57;;
1545;SDS011;766;51.502;9.752;2022-07-23T01:05:31;14.95;;;10.77;;
1545;SDS011;766;51.502;9.752;2022-07-23T01:08:00;14.05;;;10.10;;
1545;SDS011;766;51.502;9.752;2022-07-23T01:10:30;12.25;;;9.90;;
1545;SDS011;766;51.502;9.752;2022-07-23T01:13:05;15.82;;;10.98;;
1545;SDS011;766;51.502;9.752;2022-07-23T01:15:39;17.20;;;11.07;;
1545;SDS011;766;51.502;9.752;2022-07-23T01:18:07;12.20;;;9.23;;
1545;SDS011;766;51.502;9.752;2022-07-23T01:20:37;15.25;;;10.38;;
1545;SDS011;766;51.502;9.752;2022-07-23T01:23:06;13.80;;;9.95;;
1545;SDS011;766;51.502;9.752;2022-07-23T01:25:35;12.32;;;9.15;;
1545;SDS011;766;51.502;9.752;2022-07-23T01:28:03;14.85;;;10.38;;
1545;SDS011;766;51.502;9.752;2022-07-23T01:30:31;12.25;;;9.95;;
1545;SDS011;766;51.502;9.752;2022-07-23T01:33:00;14.27;;;10.18;;
1545;SDS011;766;51.502;9.752;2022-07-23T01:35:29;15.95;;;10.18;;
1545;SDS011;766;51.502;9.752;2022-07-23T01:37:57;12.10;;;9.38;;
1545;SDS011;766;51.502;9.752;2022-07-23T01:40:27;14.52;;;9.68;;
1545;SDS011;766;51.502;9.752;2022-07-23T01:42:55;12.73;;;9.70;;
1545;SDS011;766;51.502;9.752;2022-07-23T01:45:26;14.73;;;9.73;;
1545;SDS011;766;51.502;9.752;2022-07-23T01:47:54;13.65;;;9.57;;
1545;SDS011;766;51.502;9.752;2022-07-23T01:50:23;14.00;;;10.23;;
1545;SDS011;766;51.502;9.752;2022-07-23T01:52:51;15.68;;;10.43;;
1545;SDS011;766;51.502;9.752;2022-07-23T01:55:20;11.85;;;9.75;;
1545;SDS011;766;51.502;9.752;2022-07-23T01:57:50;12.43;;;9.65;;
1545;SDS011;766;51.502;9.752;2022-07-23T02:00:18;15.55;;;10.15;;
1545;SDS011;766;51.502;9.752;2022-07-23T02:02:47;15.80;;;9.75;;
1545;SDS011;766;51.502;9.752;2022-07-23T02:05:15;14.25;;;8.98;;
1545;SDS011;766;51.502;9.752;2022-07-23T02:07:44;10.23;;;8.45;;
1545;SDS011;766;51.502;9.752;2022-07-23T02:10:12;12.80;;;9.52;;
1545;SDS011;766;51.502;9.752;2022-07-23T02:12:41;11.80;;;9.15;;
1545;SDS011;766;51.502;9.752;2022-07-23T02:15:11;15.88;;;9.68;;
1545;SDS011;766;51.502;9.752;2022-07-23T02:17:39;14.13;;;9.88;;
1545;SDS011;766;51.502;9.752;2022-07-23T02:20:09;13.68;;;9.73;;
1545;SDS011;766;51.502;9.752;2022-07-23T02:22:38;11.48;;;8.77;;
1545;SDS011;766;51.502;9.752;2022-07-23T02:25:07;12.10;;;9.20;;
1545;SDS011;766;51.502;9.752;2022-07-23T02:27:36;12.57;;;8.18;;
1545;SDS011;766;51.502;9.752;2022-07-23T02:30:05;12.48;;;8.93;;
1545;SDS011;766;51.502;9.752;2022-07-23T02:32:35;13.23;;;9.52;;
1545;SDS011;766;51.502;9.752;2022-07-23T02:35:05;14.73;;;8.82;;
1545;SDS011;766;51.502;9.752;2022-07-23T02:37:35;11.55;;;8.82;;
1545;SDS011;766;51.502;9.752;2022-07-23T02:40:07;12.07;;;8.70;;
1545;SDS011;766;51.502;9.752;2022-07-23T02:42:36;13.40;;;9.35;;
1545;SDS011;766;51.502;9.752;2022-07-23T02:45:04;12.77;;;9.35;;
1545;SDS011;766;51.502;9.752;2022-07-23T02:47:33;20.05;;;10.30;;
1545;SDS011;766;51.502;9.752;2022-07-23T02:50:04;14.95;;;9.02;;
1545;SDS011;766;51.502;9.752;2022-07-23T02:52:33;18.60;;;10.73;;
1545;SDS011;766;51.502;9.752;2022-07-23T02:55:02;12.10;;;10.10;;
1545;SDS011;766;51.502;9.752;2022-07-23T02:57:31;16.80;;;10.13;;
1545;SDS011;766;51.502;9.752;2022-07-23T03:00:04;13.10;;;10.15;;
1545;SDS011;766;51.502;9.752;2022-07-23T03:02:36;14.30;;;9.65;;
1545;SDS011;766;51.502;9.752;2022-07-23T03:05:05;13.13;;;9.95;;
1545;SDS011;766;51.502;9.752;2022-07-23T03:07:38;14.88;;;10.32;;
1545;SDS011;766;51.502;9.752;2022-07-23T03:10:06;14.15;;;9.60;;
1545;SDS011;766;51.502;9.752;2022-07-23T03:12:35;15.63;;;10.23;;
1545;SDS011;766;51.502;9.752;2022-07-23T03:15:05;15.80;;;10.07;;
1545;SDS011;766;51.502;9.752;2022-07-23T03:17:36;14.48;;;10.18;;
1545;SDS011;766;51.502;9.752;2022-07-23T03:20:04;13.10;;;10.40;;
1545;SDS011;766;51.502;9.752;2022-07-23T03:22:34;15.15;;;9.68;;
1545;SDS011;766;51.502;9.752;2022-07-23T03:25:02;13.45;;;9.50;;
1545;SDS011;766;51.502;9.752;2022-07-23T03:27:31;14.70;;;10.52;;
1545;SDS011;766;51.502;9.752;2022-07-23T03:30:00;15.13;;;9.70;;
1545;SDS011;766;51.502;9.752;2022-07-23T03:32:29;13.35;;;9.43;;
1545;SDS011;766;51.502;9.752;2022-07-23T03:35:00;13.45;;;9.80;;
1545;SDS011;766;51.502;9.752;2022-07-23T03:37:32;14.82;;;10.25;;
1545;SDS011;766;51.502;9.752;2022-07-23T03:40:00;12.65;;;9.63;;
1545;SDS011;766;51.502;9.752;2022-07-23T03:42:29;12.60;;;9.98;;
1545;SDS011;766;51.502;9.752;2022-07-23T03:44:57;13.07;;;10.43;;
1545;SDS011;766;51.502;9.752;2022-07-23T03:47:32;10.98;;;9.35;;
1545;SDS011;766;51.502;9.752;2022-07-23T03:50:06;14.70;;;9.73;;
1545;SDS011;766;51.502;9.752;2022-07-23T03:52:35;13.45;;;10.82;;
1545;SDS011;766;51.502;9.752;2022-07-23T03:55:05;16.70;;;10.80;;
1545;SDS011;766;51.502;9.752;2022-07-23T03:57:34;16.83;;;11.27;;
1545;SDS011;766;51.502;9.752;2022-07-23T04:00:04;16.05;;;11.25;;
1545;SDS011;766;51.502;9.752;2022-07-23T04:02:35;18.25;;;10.85;;
1545;SDS011;766;51.502;9.752;2022-07-23T04:05:06;18.15;;;10.90;;
1545;SDS011;766;51.502;9.752;2022-07-23T04:07:35;17.63;;;11.15;;
1545;SDS011;766;51.502;9.752;2022-07-23T04:10:07;17.13;;;11.45;;
1545;SDS011;766;51.502;9.752;2022-07-23T04:12:35;15.10;;;11.18;;
1545;SDS011;766;51.502;9.752;2022-07-23T04:15:04;19.98;;;10.65;;
1545;SDS011;766;51.502;9.752;2022-07-23T04:17:35;19.02;;;12.18;;
1545;SDS011;766;51.502;9.752;2022-07-23T04:20:06;18.75;;;11.55;;
1545;SDS011;766;51.502;9.752;2022-07-23T04:22:35;12.77;;;10.13;;
1545;SDS011;766;51.502;9.752;2022-07-23T04:25:04;14.05;;;11.15;;
1545;SDS011;766;51.502;9.752;2022-07-23T04:27:33;16.50;;;10.63;;
1545;SDS011;766;51.502;9.752;2022-07-23T04:30:02;16.65;;;11.73;;
1545;SDS011;766;51.502;9.752;2022-07-23T04:32:30;18.90;;;12.02;;
1545;SDS011;766;51.502;9.752;2022-07-23T04:34:59;14.90;;;10.15;;
1545;SDS011;766;51.502;9.752;2022-07-23T04:37:28;14.45;;;10.73;;
1545;SDS011;766;51.502;9.752;2022-07-23T04:39:57;14.32;;;10.60;;
1545;SDS011;766;51.502;9.752;2022-07-23T04:42:25;15.38;;;11.82;;
1545;SDS011;766;51.502;9.752;2022-07-23T04:44:54;14.90;;;10.90;;
1545;SDS011;766;51.502;9.752;2022-07-23T04:47:22;17.15;;;11.07;;
1545;SDS011;766;51.502;9.752;2022-07-23T04:49:53;17.70;;;11.57;;
1545;SDS011;766;51.502;9.752;2022-07-23T04:52:22;16.38;;;11.55;;
1545;SDS011;766;51.502;9.752;2022-07-23T04:54:52;17.13;;;11.18;;
1545;SDS011;766;51.502;9.752;2022-07-23T04:57:21;17.05;;;11.63;;
1545;SDS011;766;51.502;9.752;2022-07-23T04:59:49;16.98;;;12.60;;
1545;SDS011;766;51.502;9.752;2022-07-23T05:02:20;19.58;;;12.15;;
1545;SDS011;766;51.502;9.752;2022-07-23T05:04:49;16.33;;;12.25;;
1545;SDS011;766;51.502;9.752;2022-07-23T05:07:27;16.52;;;11.50;;
1545;SDS011;766;51.502;9.752;2022-07-23T05:10:01;18.65;;;12.98;;
1545;SDS011;766;51.502;9.752;2022-07-23T05:12:30;19.80;;;12.35;;
1545;SDS011;766;51.502;9.752;2022-07-23T05:14:59;16.33;;;12.57;;
1545;SDS011;766;51.502;9.752;2022-07-23T05:17:27;17.25;;;11.43;;
1545;SDS011;766;51.502;9.752;2022-07-23T05:19:55;14.27;;;11.45;;
1545;SDS011;766;51.502;9.752;2022-07-23T05:22:26;19.30;;;12.15;;
1545;SDS011;766;51.502;9.752;2022-07-23T05:24:55;17.58;;;12.30;;
1545;SDS011;766;51.502;9.752;2022-07-23T05:27:24;17.77;;;12.40;;
1545;SDS011;766;51.502;9.752;2022-07-23T05:29:53;18.65;;;12.57;;
1545;SDS011;766;51.502;9.752;2022-07-23T05:32:21;15.40;;;11.48;;
1545;SDS011;766;51.502;9.752;2022-07-23T05:34:50;16.80;;;12.20;;
1545;SDS011;766;51.502;9.752;2022-07-23T05:37:19;18.05;;;11.82;;
1545;SDS011;766;51.502;9.752;2022-07-23T05:39:47;22.73;;;13.32;;
1545;SDS011;766;51.502;9.752;2022-07-23T05:42:16;18.73;;;12.30;;
1545;SDS011;766;51.502;9.752;2022-07-23T05:44:46;16.13;;;11.95;;
1545;SDS011;766;51.502;9.752;2022-07-23T05:47:15;19.73;;;13.18;;
1545;SDS011;766;51.502;9.752;2022-07-23T05:49:44;18.15;;;13.88;;
1545;SDS011;766;51.502;9.752;2022-07-23T05:52:12;16.92;;;12.27;;
1545;SDS011;766;51.502;9.752;2022-07-23T05:54:41;16.58;;;11.85;;
1545;SDS011;766;51.502;9.752;2022-07-23T05:57:11;22.73;;;10.65;;
1545;SDS011;766;51.502;9.752;2022-07-23T05:59:39;13.77;;;10.00;;
1545;SDS011;766;51.502;9.752;2022-07-23T06:02:09;16.40;;;11.15;;
1545;SDS011;766;51.502;9.752;2022-07-23T06:04:38;13.32;;;10.85;;
1545;SDS011;766;51.502;9.752;2022-07-23T06:07:06;13.70;;;9.40;;
1545;SDS011;766;51.502;9.752;2022-07-23T06:09:35;11.73;;;9.80;;
1545;SDS011;766;51.502;9.752;2022-07-23T06:12:04;10.50;;;9.40;;
1545;SDS011;766;51.502;9.752;2022-07-23T06:14:34;11.65;;;8.85;;
1545;SDS011;766;51.502;9.752;2022-07-23T06:17:03;12.32;;;8.75;;
1545;SDS011;766;51.502;9.752;2022-07-23T06:19:32;11.90;;;9.15;;
1545;SDS011;766;51.502;9.752;2022-07-23T06:22:01;11.25;;;8.75;;
1545;SDS011;766;51.502;9.752;2022-07-23T06:24:29;13.38;;;9.05;;
1545;SDS011;766;51.502;9.752;2022-07-23T06:26:58;11.38;;;8.80;;
1545;SDS011;766;51.502;9.752;2022-07-23T06:29:26;12.15;;;7.70;;
1545;SDS011;766;51.502;9.752;2022-07-23T06:31:58;14.63;;;9.40;;
1545;SDS011;766;51.502;9.752;2022-07-23T06:34:27;11.70;;;8.80;;
1545;SDS011;766;51.502;9.752;2022-07-23T06:36:57;10.45;;;8.55;;
1545;SDS011;766;51.502;9.752;2022-07-23T06:39:25;10.75;;;8.70;;
1545;SDS011;766;51.502;9.752;2022-07-23T06:41:54;10.82;;;7.78;;
1545;SDS011;766;51.502;9.752;2022-07-23T06:44:27;11.15;;;8.43;;
1545;SDS011;766;51.502;9.752;2022-07-23T06:46:56;10.55;;;8.77;;
1545;SDS011;766;51.502;9.752;2022-07-23T06:49:27;9.45;;;8.00;;
1545;SDS011;766;51.502;9.752;2022-07-23T06:51:57;8.70;;;7.80;;
1545;SDS011;766;51.502;9.752;2022-07-23T06:54:26;13.77;;;8.85;;
1545;SDS011;766;51.502;9.752;2022-07-23T06:56:55;9.45;;;6.55;;
1545;SDS011;766;51.502;9.752;2022-07-23T06:59:23;10.32;;;7.75;;
1545;SDS011;766;51.502;9.752;2022-07-23T07:01:51;12.63;;;7.65;;
1545;SDS011;766;51.502;9.752;2022-07-23T07:04:20;9.93;;;7.30;;
1545;SDS011;766;51.502;9.752;2022-07-23T07:06:49;9.90;;;7.22;;
1545;SDS011;766;51.502;9.752;2022-07-23T07:09:18;8.48;;;6.82;;
1545;SDS011;766;51.502;9.752;2022-07-23T07:11:46;8.48;;;6.70;;
1545;SDS011;766;51.502;9.752;2022-07-23T07:14:15;10.40;;;6.57;;
1545;SDS011;766;51.502;9.752;2022-07-23T07:16:43;9.45;;;6.40;;
1545;SDS011;766;51.502;9.752;2022-07-23T07:19:11;8.25;;;6.20;;
1545;SDS011;766;51.502;9.752;2022-07-23T07:21:40;7.43;;;5.93;;
1545;SDS011;766;51.502;9.752;2022-07-23T07:24:12;8.88;;;6.05;;
1545;SDS011;766;51.502;9.752;2022-07-23T07:26:42;8.90;;;5.68;;
1545;SDS011;766;51.502;9.752;2022-07-23T07:29:10;6.10;;;4.72;;
1545;SDS011;766;51.502;9.752;2022-07-23T07:31:39;7.80;;;5.00;;
1545;SDS011;766;51.502;9.752;2022-07-23T07:34:07;10.00;;;5.32;;
1545;SDS011;766;51.502;9.752;2022-07-23T07:36:36;6.60;;;5.45;;
1545;SDS011;766;51.502;9.752;2022-07-23T07:39:04;7.38;;;4.90;;
1545;SDS011;766;51.502;9.752;2022-07-23T07:41:33;7.13;;;4.80;;
1545;SDS011;766;51.502;9.752;2022-07-23T07:44:12;7.88;;;5.18;;
1545;SDS011;766;51.502;9.752;2022-07-23T07:46:40;9.82;;;5.18;;
1545;SDS011;766;51.502;9.752;2022-07-23T07:49:09;7.85;;;5.10;;
1545;SDS011;766;51.502;9.752;2022-07-23T07:51:41;7.03;;;4.82;;
1545;SDS011;766;51.502;9.752;2022-07-23T07:54:10;4.10;;;3.60;;
1545;SDS011;766;51.502;9.752;2022-07-23T07:56:40;6.25;;;3.42;;
1545;SDS011;766;51.502;9.752;2022-07-23T07:59:09;4.57;;;3.10;;
1545;SDS011;766;51.502;9.752;2022-07-23T08:01:39;3.90;;;2.95;;
1545;SDS011;766;51.502;9.752;2022-07-23T08:04:08;4.22;;;2.60;;
1545;SDS011;766;51.502;9.752;2022-07-23T08:06:37;2.55;;;2.35;;
1545;SDS011;766;51.502;9.752;2022-07-23T08:09:05;3.35;;;2.42;;
1545;SDS011;766;51.502;9.752;2022-07-23T08:11:34;3.47;;;2.85;;
1545;SDS011;766;51.502;9.752;2022-07-23T08:14:03;4.95;;;3.17;;
1545;SDS011;766;51.502;9.752;2022-07-23T08:16:31;5.45;;;2.70;;
1545;SDS011;766;51.502;9.752;2022-07-23T08:19:22;4.07;;;2.70;;
1545;SDS011;766;51.502;9.752;2022-07-23T08:21:56;3.28;;;2.55;;
1545;SDS011;766;51.502;9.752;2022-07-23T08:24:53;5.88;;;2.40;;
1545;SDS011;766;51.502;9.752;2022-07-23T08:27:22;4.35;;;2.70;;
1545;SDS011;766;51.502;9.752;2022-07-23T08:29:52;4.85;;;3.00;;
1545;SDS011;766;51.502;9.752;2022-07-23T08:32:21;2.80;;;2.60;;
1545;SDS011;766;51.502;9.752;2022-07-23T08:35:11;3.30;;;2.67;;
1545;SDS011;766;51.502;9.752;2022-07-23T08:37:41;5.30;;;3.22;;
1545;SDS011;766;51.502;9.752;2022-07-23T08:40:10;4.53;;;3.45;;
1545;SDS011;766;51.502;9.752;2022-07-23T08:42:38;3.67;;;3.00;;
1545;SDS011;766;51.502;9.752;2022-07-23T08:45:07;3.83;;;3.20;;
1545;SDS011;766;51.502;9.752;2022-07-23T08:47:37;4.20;;;3.10;;
1545;SDS011;766;51.502;9.752;2022-07-23T08:50:07;4.45;;;2.75;;
1545;SDS011;766;51.502;9.752;2022-07-23T08:52:38;5.03;;;3.58;;
1545;SDS011;766;51.502;9.752;2022-07-23T08:55:07;2.75;;;2.55;;
1545;SDS011;766;51.502;9.752;2022-07-23T08:57:36;3.45;;;3.05;;
1545;SDS011;766;51.502;9.752;2022-07-23T09:00:06;5.15;;;3.30;;
1545;SDS011;766;51.502;9.752;2022-07-23T09:02:39;5.07;;;3.30;;
1545;SDS011;766;51.502;9.752;2022-07-23T09:05:09;5.35;;;3.03;;
1545;SDS011;766;51.502;9.752;2022-07-23T09:10:46;5.38;;;2.97;;
1545;SDS011;766;51.502;9.752;2022-07-23T09:13:24;5.30;;;3.38;;
1545;SDS011;766;51.502;9.752;2022-07-23T09:15:57;3.50;;;3.13;;
1545;SDS011;766;51.502;9.752;2022-07-23T09:18:28;4.28;;;2.80;;
1545;SDS011;766;51.502;9.752;2022-07-23T09:21:08;4.57;;;3.38;;
1545;SDS011;766;51.502;9.752;2022-07-23T09:23:52;3.75;;;3.10;;
1545;SDS011;766;51.502;9.752;2022-07-23T09:26:29;4.38;;;3.40;;
1545;SDS011;766;51.502;9.752;2022-07-23T09:29:02;3.05;;;2.50;;
1545;SDS011;766;51.502;9.752;2022-07-23T09:31:46;5.68;;;3.00;;
1545;SDS011;766;51.502;9.752;2022-07-23T09:34:17;6.50;;;3.30;;
1545;SDS011;766;51.502;9.752;2022-07-23T09:36:50;5.32;;;3.25;;
1545;SDS011;766;51.502;9.752;2022-07-23T09:39:28;6.20;;;2.80;;
1545;SDS011;766;51.502;9.752;2022-07-23T09:41:58;4.88;;;3.20;;
1545;SDS011;766;51.502;9.752;2022-07-23T09:44:41;6.70;;;3.00;;
1545;SDS011;766;51.502;9.752;2022-07-23T09:47:10;4.63;;;3.28;;
1545;SDS011;766;51.502;9.752;2022-07-23T09:49:39;3.92;;;3.20;;
1545;SDS011;766;51.502;9.752;2022-07-23T09:52:07;3.58;;;2.90;;
1545;SDS011;766;51.502;9.752;2022-07-23T09:54:37;4.90;;;3.10;;
1545;SDS011;766;51.502;9.752;2022-07-23T09:57:08;4.40;;;3.10;;
1545;SDS011;766;51.502;9.752;2022-07-23T09:59:41;4.03;;;3.00;;
1545;SDS011;766;51.502;9.752;2022-07-23T10:02:11;4.43;;;2.50;;
1545;SDS011;766;51.502;9.752;2022-07-23T10:04:44;4.70;;;3.00;;
1545;SDS011;766;51.502;9.752;2022-07-23T10:07:15;2.95;;;2.65;;
1545;SDS011;766;51.502;9.752;2022-07-23T10:09:46;4.10;;;2.90;;
1545;SDS011;766;51.502;9.752;2022-07-23T10:12:17;4.05;;;2.80;;
1545;SDS011;766;51.502;9.752;2022-07-23T10:15:19;2.78;;;2.58;;
1545;SDS011;766;51.502;9.752;2022-07-23T10:17:48;3.53;;;2.70;;
1545;SDS011;766;51.502;9.752;2022-07-23T10:20:17;2.95;;;2.15;;
1545;SDS011;766;51.502;9.752;2022-07-23T10:22:47;2.97;;;2.60;;
1545;SDS011;766;51.502;9.752;2022-07-23T10:25:24;3.95;;;2.40;;
1545;SDS011;766;51.502;9.752;2022-07-23T10:31:08;3.17;;;2.25;;
1545;SDS011;766;51.502;9.752;2022-07-23T10:34:12;2.60;;;2.05;;
1545;SDS011;766;51.502;9.752;2022-07-23T10:36:47;2.33;;;2.10;;
1545;SDS011;766;51.502;9.752;2022-07-23T10:39:19;2.70;;;2.00;;
1545;SDS011;766;51.502;9.752;2022-07-23T10:41:53;2.35;;;2.03;;
1545;SDS011;766;51.502;9.752;2022-07-23T10:44:41;4.15;;;2.15;;
1545;SDS011;766;51.502;9.752;2022-07-23T10:47:10;4.50;;;2.55;;
1545;SDS011;766;51.502;9.752;2022-07-23T10:53:13;3.72;;;2.10;;
1545;SDS011;766;51.502;9.752;2022-07-23T10:55:50;2.55;;;1.95;;
1545;SDS011;766;51.502;9.752;2022-07-23T10:58:22;2.63;;;2.10;;
1545;SDS011;766;51.502;9.752;2022-07-23T11:04:03;2.63;;;2.10;;
1545;SDS011;766;51.502;9.752;2022-07-23T11:09:38;5.47;;;2.40;;
1545;SDS011;766;51.502;9.752;2022-07-23T11:15:05;3.17;;;2.33;;
1545;SDS011;766;51.502;9.752;2022-07-23T11:17:36;2.58;;;2.22;;
1545;SDS011;766;51.502;9.752;2022-07-23T11:20:16;3.53;;;2.92;;
1545;SDS011;766;51.502;9.752;2022-07-23T11:22:50;2.65;;;2.45;;
1545;SDS011;766;51.502;9.752;2022-07-23T11:25:29;3.00;;;2.67;;
1545;SDS011;766;51.502;9.752;2022-07-23T11:28:12;3.00;;;2.40;;
1545;SDS011;766;51.502;9.752;2022-07-23T11:30:49;3.03;;;2.20;;
1545;SDS011;766;51.502;9.752;2022-07-23T11:33:19;3.00;;;2.15;;
1545;SDS011;766;51.502;9.752;2022-07-23T11:36:00;2.42;;;2.22;;
1545;SDS011;766;51.502;9.752;2022-07-23T11:38:31;2.53;;;2.30;;
1545;SDS011;766;51.502;9.752;2022-07-23T11:41:01;3.53;;;2.15;;
1545;SDS011;766;51.502;9.752;2022-07-23T11:43:30;2.60;;;2.40;;
1545;SDS011;766;51.502;9.752;2022-07-23T11:46:00;2.88;;;2.10;;
1545;SDS011;766;51.502;9.752;2022-07-23T11:48:30;2.97;;;2.20;;
1545;SDS011;766;51.502;9.752;2022-07-23T11:51:06;4.07;;;2.50;;
1545;SDS011;766;51.502;9.752;2022-07-23T11:53:34;3.25;;;2.10;;
1545;SDS011;766;51.502;9.752;2022-07-23T11:56:03;5.70;;;2.25;;
1545;SDS011;766;51.502;9.752;2022-07-23T11:58:33;3.30;;;2.10;;
1545;SDS011;766;51.502;9.752;2022-07-23T12:01:03;2.33;;;2.05;;
1545;SDS011;766;51.502;9.752;2022-07-23T12:03:48;3.25;;;2.20;;
1545;SDS011;766;51.502;9.752;2022-07-23T12:06:17;3.10;;;2.08;;
1545;SDS011;766;51.502;9.752;2022-07-23T12:08:46;1.95;;;1.80;;
1545;SDS011;766;51.502;9.752;2022-07-23T12:11:14;2.45;;;2.15;;
1545;SDS011;766;51.502;9.752;2022-07-23T12:13:43;2.92;;;2.00;;
1545;SDS011;766;51.502;9.752;2022-07-23T12:16:24;2.00;;;1.80;;
1545;SDS011;766;51.502;9.752;2022-07-23T12:18:53;2.92;;;2.10;;
1545;SDS011;766;51.502;9.752;2022-07-23T12:21:23;3.85;;;2.00;;
1545;SDS011;766;51.502;9.752;2022-07-23T12:23:51;2.33;;;1.95;;
1545;SDS011;766;51.502;9.752;2022-07-23T12:26:33;3.58;;;1.92;;
1545;SDS011;766;51.502;9.752;2022-07-23T12:29:02;2.45;;;1.85;;
1545;SDS011;766;51.502;9.752;2022-07-23T12:31:32;2.63;;;2.00;;
1545;SDS011;766;51.502;9.752;2022-07-23T12:34:08;2.63;;;1.92;;
1545;SDS011;766;51.502;9.752;2022-07-23T12:36:41;3.42;;;2.30;;
1545;SDS011;766;51.502;9.752;2022-07-23T12:39:11;2.90;;;2.03;;
1545;SDS011;766;51.502;9.752;2022-07-23T12:41:57;2.17;;;1.90;;
1545;SDS011;766;51.502;9.752;2022-07-23T12:44:26;2.63;;;2.20;;
1545;SDS011;766;51.502;9.752;2022-07-23T12:46:57;3.10;;;2.00;;
1545;SDS011;766;51.502;9.752;2022-07-23T12:49:26;3.17;;;1.85;;
1545;SDS011;766;51.502;9.752;2022-07-23T12:52:15;3.38;;;2.10;;
1545;SDS011;766;51.502;9.752;2022-07-23T12:54:45;3.58;;;2.17;;
1545;SDS011;766;51.502;9.752;2022-07-23T12:57:14;3.88;;;2.20;;
1545;SDS011;766;51.502;9.752;2022-07-23T12:59:45;3.83;;;2.00;;
1545;SDS011;766;51.502;9.752;2022-07-23T13:02:16;3.50;;;1.80;;
1545;SDS011;766;51.502;9.752;2022-07-23T13:04:47;3.40;;;1.92;;
1545;SDS011;766;51.502;9.752;2022-07-23T13:07:15;2.95;;;2.08;;
1545;SDS011;766;51.502;9.752;2022-07-23T13:09:44;3.85;;;1.88;;
1545;SDS011;766;51.502;9.752;2022-07-23T13:12:13;5.65;;;2.00;;
1545;SDS011;766;51.502;9.752;2022-07-23T13:14:42;4.60;;;2.25;;
1545;SDS011;766;51.502;9.752;2022-07-23T13:17:10;2.63;;;1.85;;
1545;SDS011;766;51.502;9.752;2022-07-23T13:19:41;3.75;;;2.13;;
1545;SDS011;766;51.502;9.752;2022-07-23T13:22:09;2.78;;;2.00;;
1545;SDS011;766;51.502;9.752;2022-07-23T13:24:39;5.15;;;2.15;;
1545;SDS011;766;51.502;9.752;2022-07-23T13:27:07;2.88;;;2.10;;
1545;SDS011;766;51.502;9.752;2022-07-23T13:29:38;4.03;;;2.25;;
1545;SDS011;766;51.502;9.752;2022-07-23T13:32:08;3.58;;;1.90;;
1545;SDS011;766;51.502;9.752;2022-07-23T13:34:39;2.30;;;1.85;;
1545;SDS011;766;51.502;9.752;2022-07-23T13:37:10;2.55;;;2.03;;
1545;SDS011;766;51.502;9.752;2022-07-23T13:39:40;5.82;;;2.13;;
1545;SDS011;766;51.502;9.752;2022-07-23T13:42:09;2.90;;;2.00;;
1545;SDS011;766;51.502;9.752;2022-07-23T13:44:40;3.67;;;1.90;;
1545;SDS011;766;51.502;9.752;2022-07-23T13:47:09;3.85;;;2.10;;
1545;SDS011;766;51.502;9.752;2022-07-23T13:49:38;3.22;;;2.10;;
1545;SDS011;766;51.502;9.752;2022-07-23T13:52:08;3.00;;;2.25;;
1545;SDS011;766;51.502;9.752;2022-07-23T13:54:37;5.28;;;2.20;;
1545;SDS011;766;51.502;9.752;2022-07-23T13:57:06;2.00;;;1.70;;
1545;SDS011;766;51.502;9.752;2022-07-23T13:59:36;7.57;;;2.72;;
1545;SDS011;766;51.502;9.752;2022-07-23T14:02:04;3.58;;;2.40;;
1545;SDS011;766;51.502;9.752;2022-07-23T14:04:52;3.67;;;2.35;;
1545;SDS011;766;51.502;9.752;2022-07-23T14:07:22;3.72;;;2.17;;
1545;SDS011;766;51.502;9.752;2022-07-23T14:09:51;3.95;;;2.13;;
1545;SDS011;766;51.502;9.752;2022-07-23T14:12:20;2.45;;;1.90;;
1545;SDS011;766;51.502;9.752;2022-07-23T14:14:49;2.88;;;2.08;;
1545;SDS011;766;51.502;9.752;2022-07-23T14:17:19;2.38;;;2.13;;
1545;SDS011;766;51.502;9.752;2022-07-23T14:19:50;3.13;;;1.90;;
1545;SDS011;766;51.502;9.752;2022-07-23T14:22:18;3.72;;;2.10;;
1545;SDS011;766;51.502;9.752;2022-07-23T14:24:49;2.33;;;2.00;;
1545;SDS011;766;51.502;9.752;2022-07-23T14:27:18;2.67;;;2.10;;
1545;SDS011;766;51.502;9.752;2022-07-23T14:29:47;2.25;;;2.05;;
1545;SDS011;766;51.502;9.752;2022-07-23T14:32:15;3.42;;;1.73;;
1545;SDS011;766;51.502;9.752;2022-07-23T14:34:44;2.35;;;1.83;;
1545;SDS011;766;51.502;9.752;2022-07-23T14:37:15;3.15;;;2.00;;
1545;SDS011;766;51.502;9.752;2022-07-23T14:39:44;5.45;;;2.53;;
1545;SDS011;766;51.502;9.752;2022-07-23T14:42:17;5.80;;;2.38;;
1545;SDS011;766;51.502;9.752;2022-07-23T14:44:52;2.90;;;1.98;;
1545;SDS011;766;51.502;9.752;2022-07-23T14:47:20;3.80;;;2.13;;
1545;SDS011;766;51.502;9.752;2022-07-23T14:49:51;3.28;;;2.10;;
1545;SDS011;766;51.502;9.752;2022-07-23T14:52:21;2.90;;;1.73;;
1545;SDS011;766;51.502;9.752;2022-07-23T14:54:50;5.00;;;2.10;;
1545;SDS011;766;51.502;9.752;2022-07-23T14:57:20;9.95;;;2.03;;
1545;SDS011;766;51.502;9.752;2022-07-23T14:59:53;3.10;;;2.05;;
1545;SDS011;766;51.502;9.752;2022-07-23T15:02:25;6.30;;;2.20;;
1545;SDS011;766;51.502;9.752;2022-07-23T15:04:53;5.50;;;2.00;;
1545;SDS011;766;51.502;9.752;2022-07-23T15:07:24;4.50;;;1.92;;
1545;SDS011;766;51.502;9.752;2022-07-23T15:09:53;3.33;;;1.80;;
1545;SDS011;766;51.502;9.752;2022-07-23T15:12:24;4.13;;;2.00;;
1545;SDS011;766;51.502;9.752;2022-07-23T15:14:52;2.28;;;2.08;;
1545;SDS011;766;51.502;9.752;2022-07-23T15:17:21;4.93;;;2.10;;
1545;SDS011;766;51.502;9.752;2022-07-23T15:19:53;4.30;;;2.08;;
1545;SDS011;766;51.502;9.752;2022-07-23T15:22:22;2.47;;;1.83;;
1545;SDS011;766;51.502;9.752;2022-07-23T15:24:51;3.10;;;1.92;;
1545;SDS011;766;51.502;9.752;2022-07-23T15:27:20;3.35;;;2.08;;
1545;SDS011;766;51.502;9.752;2022-07-23T15:29:52;2.60;;;1.60;;
1545;SDS011;766;51.502;9.752;2022-07-23T15:32:21;3.10;;;1.90;;
1545;SDS011;766;51.502;9.752;2022-07-23T15:34:51;3.97;;;2.10;;
1545;SDS011;766;51.502;9.752;2022-07-23T15:37:20;1.90;;;1.70;;
1545;SDS011;766;51.502;9.752;2022-07-23T15:39:50;1.88;;;1.70;;
1545;SDS011;766;51.502;9.752;2022-07-23T15:42:20;3.58;;;1.92;;
1545;SDS011;766;51.502;9.752;2022-07-23T15:44:48;4.07;;;2.10;;
1545;SDS011;766;51.502;9.752;2022-07-23T15:47:18;2.08;;;1.88;;
1545;SDS011;766;51.502;9.752;2022-07-23T15:49:50;10.20;;;9.18;;
1545;SDS011;766;51.502;9.752;2022-07-23T15:52:19;2.70;;;2.33;;
1545;SDS011;766;51.502;9.752;2022-07-23T15:54:47;4.05;;;3.60;;
1545;SDS011;766;51.502;9.752;2022-07-23T15:57:16;4.07;;;2.20;;
1545;SDS011;766;51.502;9.752;2022-07-23T15:59:47;28.05;;;22.25;;